• Join FlightAware (Why Join?)
  • Login
  • US Flag 
06:31AM EST


 

Airport Tracker/Info


-or-


 

Live Flight TrackerFlight Track Log ✈ GJS3657 ✈ 23-Jul-2013 ✈ KGSO - KORD

Flight Track Log - Related Links

Times and Time Zones

All times are in EDT time to prevent confusion due to time zone crossing. See the GJS3657 flight status page for this flight to view local times or setup timezone preferences in your user account.

Time Position Orientation Groundspeed Altitude Reporting Facility
EDT Latitude Longitude Course Direction KTS MPH feet Rate Location/Type
08:18PM 36.0936 -80.1175 308° West 219 252 6,700  Level Atlanta Center
08:19PM 36.1439 -80.1844 313° West 232 267 9,400 2,150 Climbing Atlanta Center
08:20PM 36.1983 -80.2617 311° West 254 292 11,000 1,600 Climbing Atlanta Center
08:21PM 36.2636 -80.3514 312° West 305 351 12,600 1,950 Climbing Atlanta Center
08:22PM 36.4192 -80.5216 302° West  Level FlightAware Approximate
08:22PM 36.3100 -80.4419 302° West 347 399 14,900  Level Atlanta Center
08:23PM 36.4746 -80.6188 307° West  Level FlightAware Approximate
08:23PM 36.3531 -80.5561 295° West 353 406 16,800  Level Atlanta Center
08:24PM 36.5332 -80.7131 308° West  Level FlightAware Approximate
08:24PM 36.4000 -80.6753 296° West 378 435 18,400  Level Atlanta Center
08:25PM 36.4453 -80.7997 294° West 390 449 19,900 1,400 Climbing Atlanta Center
08:26PM 36.4919 -80.9192 296° West 395 455 21,200 1,350 Climbing Atlanta Center
08:27PM 36.5411 -81.0492 295° West 408 470 22,600 1,300 Climbing Atlanta Center
08:28PM 36.5881 -81.1767 295° West 408 470 23,800 1,100 Climbing Atlanta Center
08:29PM 36.6389 -81.3094 296° West 413 475 24,800 900 Climbing Atlanta Center
08:30PM 36.6922 -81.4525 295° West 413 475 25,600 600 Climbing Atlanta Center
08:31PM 36.7364 -81.5781 294° West 423 487 26,000 200 Climbing Atlanta Center
08:32PM 36.7872 -81.7189 294° West 436 502 26,000 537 Level Atlanta Center
08:34PM 36.8983 -82.0244 295° West 445 512 27,700 625 Climbing Indianapolis Center
08:35PM 36.9494 -82.1678 294° West 450 518 28,000 145 Climbing Indianapolis Center
08:36PM 37.0014 -82.3117 294° West 453 521 28,000  Level Indianapolis Center
08:37PM 37.0622 -82.4808 294° West 458 527 28,000 290 Level Indianapolis Center
08:39PM 37.1131 -82.6242 294° West 455 524 28,600 968 Climbing Indianapolis Center
08:40PM 37.1633 -82.7672 294° West 454 522 30,000 1,355 Climbing Indianapolis Center
08:41PM 37.2117 -82.9058 294° West 441 507 31,400 1,258 Climbing Indianapolis Center
08:42PM 37.2681 -83.0658 294° West 434 499 32,600 774 Climbing Indianapolis Center
08:43PM 37.3150 -83.2033 293° West 431 496 33,000 683 Climbing Indianapolis Center
08:44PM 37.3614 -83.3381 293° West 423 487 34,000 976 Climbing Indianapolis Center
08:45PM 37.4067 -83.4703 293° West 415 478 35,000 968 Climbing Indianapolis Center
08:46PM 37.4522 -83.6028 293° West 413 475 36,000 1,065 Climbing Indianapolis Center
08:47PM 37.5306 -83.7372 306° West 418 481 37,200 968 Climbing Indianapolis Center
08:48PM 37.6317 -83.8086 331° Northwest 419 482 38,000 387 Climbing Indianapolis Center
08:49PM 37.7392 -83.8772 333° Northwest 429 494 38,000  Level Indianapolis Center
08:50PM 37.8489 -83.9464 334° Northwest 439 505 38,000  Level Indianapolis Center
08:51PM 37.9592 -84.0136 334° Northwest 438 504 38,000  Level Indianapolis Center
08:52PM 38.0675 -84.0825 333° Northwest 435 501 38,000  Level Indianapolis Center
08:53PM 38.1747 -84.1497 334° Northwest 431 496 38,000 -146 Level Indianapolis Center
08:54PM 38.2981 -84.2297 333° Northwest 427 491 37,700 -387 Descending Indianapolis Center
08:55PM 38.4050 -84.2989 333° Northwest 429 494 37,200 -484 Descending Indianapolis Center
08:56PM 38.5125 -84.3650 334° Northwest 427 491 36,700 -585 Descending Indianapolis Center
08:57PM 38.6222 -84.4361 333° Northwest 438 504 36,000 -341 Descending Indianapolis Center
08:58PM 38.7358 -84.5094 333° Northwest 441 507 36,000  Level Indianapolis Center
08:59PM 38.8444 -84.5800 333° Northwest 426 490 36,000 -98 Level Indianapolis Center
09:00PM 38.9494 -84.6489 333° Northwest 426 490 35,800 -581 Descending Indianapolis Center
09:01PM 39.0572 -84.7192 333° Northwest 430 495 34,800 -1,073 Descending Indianapolis Center
09:02PM 39.1636 -84.7889 333° Northwest 425 489 33,600 -1,463 Descending Indianapolis Center
09:03PM 39.2744 -84.8622 333° Northwest 438 504 31,800 -1,790 Descending Indianapolis Center
09:04PM 39.3978 -84.9417 334° Northwest 433 498 29,900 -1,805 Descending Indianapolis Center
09:05PM 39.5014 -85.0111 333° Northwest 426 490 28,100 -1,415 Descending Indianapolis Center
09:06PM 39.6000 -85.0747 334° Northwest 406 467 27,000 -532 Descending Indianapolis Center
09:07PM 39.6944 -85.1392 332° Northwest 390 449 27,000  Level Indianapolis Center
09:08PM 39.7922 -85.2039 333° Northwest 394 453 27,000 -195 Level Indianapolis Center
09:09PM 39.8914 -85.2703 333° Northwest 400 460 26,600 -439 Descending Indianapolis Center
09:10PM 39.9889 -85.3353 333° Northwest 399 459 26,100 -341 Descending Indianapolis Center
09:11PM 40.1081 -85.4158 333° Northwest 403 464 25,900 -341 Descending Indianapolis Center
09:12PM 40.2094 -85.4858 332° Northwest 413 475 25,400 -488 Descending Indianapolis Center
09:13PM 40.2997 -85.5775 322° Northwest 416 479 24,900 -517 Descending Indianapolis Center
09:14PM 40.3900 -85.6633 324° Northwest 410 472 24,400 -466 Descending Chicago Center
09:15PM 40.4811 -85.7508 324° Northwest 409 471 24,000 -288 Descending Chicago Center
09:16PM 40.5706 -85.8400 323° Northwest 407 468 23,800 -336 Descending Chicago Center
09:17PM 40.6444 -85.9486 312° West 401 461 23,300 -387 Descending Chicago Center
09:19PM 40.7086 -86.0783 303° West 389 448 23,000 -145 Descending Chicago Center
09:20PM 40.7747 -86.1953 307° West 393 452 23,000  Level Chicago Center
09:21PM 40.8425 -86.3106 308° West 397 457 23,000  Level Chicago Center
09:22PM 40.9119 -86.4250 309° West 399 459 23,000  Level Chicago Center
09:23PM 40.9792 -86.5400 308° West 394 453 23,000 -968 Level Chicago Center
09:24PM 41.0611 -86.6756 309° West 393 452 21,000 -2,081 Descending Chicago Center
09:25PM 41.1253 -86.7867 307° West 369 425 18,700 -2,177 Descending Chicago Center
09:26PM 41.1864 -86.8897 308° West 358 412 16,500 -2,081 Descending Chicago Center
09:27PM 41.2458 -86.9897 308° West 347 399 14,400 -1,887 Descending Chicago Center
09:28PM 41.3008 -87.0850 308° West 331 381 12,600 -1,645 Descending Chicago Center
09:29PM 41.3697 -87.1989 309° West 332 382 11,000 -774 Descending Chicago Center
09:30PM 41.4356 -87.2767 318° Northwest 322 371 11,000 -97 Level Chicago Center
09:31PM 41.4975 -87.3506 318° Northwest 306 352 10,800 -484 Descending Chicago Center
09:32PM 41.5497 -87.4108 319° Northwest 260 299 10,000 -387 Descending Chicago Center
09:33PM 41.6061 -87.4714 321° Northwest 263 303 10,000 -677 Level Chicago Center
09:34PM 41.6719 -87.5444 320° Northwest 261 300 8,600 -1,403 Descending Chicago Center
09:35PM 41.7264 -87.6075 319° Northwest 262 302 7,100 -774 Descending Chicago Center
09:36PM 41.7822 -87.6711 320° Northwest 265 305 7,000 -48 Descending Chicago Center
09:37PM 41.8222 -87.7258 314° West 215 247 7,000  Level Chicago Center
09:38PM 41.8133 -87.7978 261° West 202 232 7,000 -339 Level Chicago Center
09:39PM 41.7969 -87.8867 256° West 206 237 6,300 -919 Descending Chicago Center
09:40PM 41.7739 -87.9586 247° West 211 243 5,100 -1,113 Descending Chicago Center
09:41PM 41.7519 -88.0258 246° West 203 234 4,000 -532 Descending Chicago Center
09:42PM 41.7786 -88.0789 304° West 179 206 4,000  Level Chicago Center
09:43PM 41.8122 -88.0678 14° North 180 207 4,000 -341 Level Chicago Center
09:44PM 41.8536 -88.0183 42° Northeast 171 197 3,300 -780 Descending Chicago Center
09:45PM 41.8875 -87.9772 42° Northeast 168 193 2,400 -774 Descending Chicago Center
09:46PM 41.9169 -87.9428 41° Northeast 156 180 1,700 -581 Descending Chicago Center
09:47PM 41.9422 -87.9119 42° Northeast 136 157 1,200 -484 Descending Chicago Center
09:49PM 41.9667 -87.9000 11° North  Level FlightAware Approximate